Time;durP1;ratioP1;P1;durP2;ratioP2;P2;SDS_P1;SDS_P2;PMS_P1;PMS_P2;Temp;Humidity;BMP_temperature;BMP_pressure;BME280_temperature;BME280_humidity;BME280_pressure;Samples;Min_cycle;Max_cycle;Signal;HPM_P1;HPM_P2
2022/05/10 18:21:58;;;;;;;157.88;83.63;;;;;;;15.60;100.00;101370.44;4925621;27;20439;-84
2022/05/10 18:24:37;;;;;;;187.40;96.25;;;;;;;15.30;100.00;101375.72;5082268;28;20117;-84
2022/05/10 18:27:08;;;;;;;168.10;91.32;;;;;;;15.53;100.00;101385.78;5097422;28;20040;-85
2022/05/10 18:29:39;;;;;;;109.82;68.78;;;;;;;15.52;100.00;101389.47;5071981;28;20769;-87
2022/05/10 18:32:10;;;;;;;88.57;58.85;;;;;;;14.89;100.00;101387.81;5072835;28;20249;-85
2022/05/10 18:34:50;;;;;;;64.60;49.15;;;;;;;14.83;100.00;101384.16;5069700;28;20488;-84
2022/05/10 18:37:18;;;;;;;50.47;44.63;;;;;;;14.77;100.00;101393.03;5068194;28;20045;-86
2022/05/10 18:39:54;;;;;;;43.72;39.15;;;;;;;14.94;100.00;101400.53;5073860;28;20078;-84
2022/05/10 18:42:22;;;;;;;39.40;35.85;;;;;;;14.96;100.00;101401.94;5047445;28;20053;-86
2022/05/10 18:44:50;;;;;;;37.40;34.47;;;;;;;14.81;100.00;101404.94;5076262;28;20090;-84
2022/05/10 18:47:18;;;;;;;38.38;35.30;;;;;;;14.77;100.00;101406.41;5072605;28;20060;-84
2022/05/10 18:49:51;;;;;;;34.38;32.15;;;;;;;14.86;100.00;101406.97;5074107;28;20048;-84
2022/05/10 18:52:20;;;;;;;34.47;31.58;;;;;;;14.72;100.00;101413.44;5073054;28;20049;-84
2022/05/10 18:54:47;;;;;;;32.95;30.88;;;;;;;14.46;100.00;101406.38;5073704;28;20044;-85
2022/05/10 18:57:27;;;;;;;34.22;31.45;;;;;;;14.62;100.00;101413.94;5076313;28;20051;-86
2022/05/10 18:59:56;;;;;;;33.90;31.50;;;;;;;13.82;100.00;101418.78;5070801;28;20045;-85
2022/05/10 19:02:28;;;;;;;34.42;32.03;;;;;;;13.95;100.00;101416.09;5077055;28;20045;-85
2022/05/10 19:04:54;;;;;;;36.60;33.78;;;;;;;14.29;100.00;101412.22;5074557;28;20045;-85
2022/05/10 19:07:27;;;;;;;35.03;32.80;;;;;;;14.12;100.00;101416.41;5073691;28;20052;-87
2022/05/10 19:09:54;;;;;;;;;;;;;;;13.82;100.00;101418.78;5074633;28;20452;-87
2022/05/10 19:12:47;;;;;;;33.15;30.92;;;;;;;13.94;100.00;101411.75;5063112;28;20605;-85
2022/05/10 19:15:15;;;;;;;32.92;30.85;;;;;;;13.52;100.00;101419.25;5070195;28;20543;-85
2022/05/10 19:17:57;;;;;;;32.58;30.42;;;;;;;14.01;100.00;101420.59;5075491;28;20358;-86
2022/05/10 19:20:24;;;;;;;33.30;31.20;;;;;;;14.00;100.00;101415.44;5059181;28;20053;-86
2022/05/10 19:23:08;;;;;;;33.08;30.80;;;;;;;13.91;100.00;101421.00;5026509;28;20440;-86
2022/05/10 19:25:47;;;;;;;33.75;31.60;;;;;;;13.60;100.00;101421.72;5076841;28;20053;-84
2022/05/10 19:28:29;;;;;;;33.42;31.20;;;;;;;13.58;100.00;101425.63;5087804;28;20113;-86
2022/05/10 19:30:57;;;;;;;32.53;30.52;;;;;;;13.35;100.00;101426.09;5074960;28;20044;-86
2022/05/10 19:33:23;;;;;;;35.30;32.38;;;;;;;13.44;100.00;101438.19;5076871;28;20052;-85
2022/05/10 19:36:01;;;;;;;34.72;32.35;;;;;;;13.32;100.00;101429.16;5078048;28;20479;-85
2022/05/10 19:38:37;;;;;;;33.22;31.08;;;;;;;13.13;100.00;101431.59;5077715;28;20052;-84
2022/05/10 19:41:06;;;;;;;32.67;30.67;;;;;;;12.73;100.00;101426.22;5074502;28;20110;-84
2022/05/10 19:43:35;;;;;;;34.17;31.98;;;;;;;13.12;100.00;101431.78;5079847;28;20051;-86
2022/05/10 19:46:07;;;;;;;34.22;31.83;;;;;;;13.28;100.00;101434.06;5077557;28;20084;-86
2022/05/10 19:48:39;;;;;;;33.42;31.33;;;;;;;12.74;100.00;101427.88;5078595;28;20109;-86
2022/05/10 19:51:16;;;;;;;34.30;32.15;;;;;;;13.42;100.00;101430.38;5078453;28;20040;-86
2022/05/10 19:53:50;;;;;;;34.55;31.95;;;;;;;13.25;100.00;101431.81;5073729;28;20048;-85
2022/05/10 19:56:23;;;;;;;34.28;32.08;;;;;;;13.33;100.00;101434.28;5080316;28;20157;-84
2022/05/10 19:59:03;;;;;;;33.63;31.38;;;;;;;13.06;100.00;101441.44;5088406;28;20080;-85
2022/05/10 20:07:14;;;;;;;37.13;34.55;;;;;;;13.15;100.00;101434.88;5076703;28;20134;-84
2022/05/10 20:10:04;;;;;;;37.08;34.53;;;;;;;13.16;100.00;101439.19;5073975;28;20051;-86
2022/05/10 20:12:46;;;;;;;36.83;33.75;;;;;;;13.05;100.00;101447.78;5079719;28;20056;-87
2022/05/10 20:15:56;;;;;;;34.70;32.50;;;;;;;13.09;100.00;101456.19;5076518;28;20118;-86
2022/05/10 20:18:34;;;;;;;36.85;34.20;;;;;;;13.11;100.00;101454.97;5071871;28;20098;-86
2022/05/10 20:21:05;;;;;;;35.90;33.38;;;;;;;12.73;100.00;101452.88;5082213;28;20056;-86
2022/05/10 20:27:16;;;;;;;36.28;33.70;;;;;;;12.76;100.00;101464.97;5077019;28;20039;-86
2022/05/10 20:30:20;;;;;;;35.78;33.13;;;;;;;12.74;100.00;101465.19;5078225;28;20052;-85
2022/05/10 20:32:55;;;;;;;36.38;33.58;;;;;;;12.54;100.00;101466.97;5067691;28;20052;-85
2022/05/10 20:36:13;;;;;;;36.10;33.17;;;;;;;12.66;100.00;101470.69;5075706;28;20044;-85
2022/05/10 20:38:43;;;;;;;34.30;31.83;;;;;;;12.10;100.00;101462.91;5082964;28;20045;-84
2022/05/10 20:41:13;;;;;;;34.50;32.08;;;;;;;12.20;100.00;101471.38;5068015;28;20051;-84
2022/05/10 20:44:14;;;;;;;34.55;32.10;;;;;;;12.19;100.00;101468.88;5075383;28;20041;-86
2022/05/10 20:46:57;;;;;;;34.15;31.83;;;;;;;12.25;100.00;101465.44;5075948;28;20504;-84
2022/05/10 20:49:28;;;;;;;35.22;32.72;;;;;;;12.14;100.00;101466.84;5078441;28;20102;-86
2022/05/10 20:51:55;;;;;;;36.83;34.22;;;;;;;12.21;100.00;101458.88;5077146;28;20052;-84
2022/05/10 20:54:36;;;;;;;37.88;35.10;;;;;;;12.24;100.00;101459.28;5080132;28;20534;-87
2022/05/10 20:57:13;;;;;;;35.55;32.78;;;;;;;12.24;100.00;101461.94;5071016;28;20067;-86
2022/05/10 20:59:48;;;;;;;36.65;33.88;;;;;;;12.18;100.00;101456.59;5075522;28;20048;-84
2022/05/10 21:02:16;;;;;;;37.25;34.55;;;;;;;12.02;100.00;101457.75;5078678;28;20102;-84
2022/05/10 21:04:56;;;;;;;36.03;33.42;;;;;;;12.02;100.00;101455.09;5065544;28;20099;-86
2022/05/10 21:10:14;;;;;;;36.75;34.17;;;;;;;12.14;100.00;101464.97;5072747;28;20047;-86
2022/05/10 21:12:51;;;;;;;36.50;33.90;;;;;;;12.26;100.00;101461.75;5077290;28;20118;-86
2022/05/10 21:15:27;;;;;;;38.20;35.80;;;;;;;12.18;100.00;101460.06;5076860;28;20056;-87
2022/05/10 21:18:07;;;;;;;39.63;36.78;;;;;;;12.06;100.00;101461.66;5079895;28;20500;-87
2022/05/10 21:20:34;;;;;;;39.60;37.00;;;;;;;12.24;100.00;101466.47;5066029;28;20558;-86
2022/05/10 21:23:01;;;;;;;37.00;34.50;;;;;;;12.20;100.00;101465.22;5073875;28;20052;-84
2022/05/10 21:25:34;;;;;;;40.25;37.25;;;;;;;12.37;100.00;101459.34;5068442;28;20481;-87
2022/05/10 21:28:42;;;;;;;36.65;33.92;;;;;;;12.02;100.00;101463.91;5079278;28;20079;-85
2022/05/10 21:31:15;;;;;;;37.45;35.13;;;;;;;12.41;100.00;101449.13;5081200;28;20049;-85
2022/05/10 21:34:29;;;;;;;37.90;35.20;;;;;;;12.27;100.00;101458.06;5080048;28;20059;-86
2022/05/10 21:37:07;;;;;;;35.85;33.50;;;;;;;12.36;100.00;101449.69;5077495;28;20040;-84
2022/05/10 21:39:34;;;;;;;35.10;32.70;;;;;;;12.54;100.00;101459.81;5075230;28;20048;-86
2022/05/10 21:42:20;;;;;;;34.20;31.83;;;;;;;12.38;100.00;101453.00;5066269;28;20110;-85
2022/05/10 21:44:54;;;;;;;33.65;31.15;;;;;;;12.76;100.00;101452.47;5061424;28;20057;-86
2022/05/10 21:47:24;;;;;;;35.05;32.35;;;;;;;12.65;100.00;101450.41;5054486;28;20049;-86
2022/05/10 21:50:17;;;;;;;37.42;34.78;;;;;;;12.66;100.00;101446.72;5077056;28;20052;-86
2022/05/10 21:52:54;;;;;;;39.00;36.20;;;;;;;12.75;100.00;101452.69;5076342;28;20121;-86
2022/05/10 21:55:22;;;;;;;41.20;38.50;;;;;;;12.65;100.00;101452.22;5075770;28;20082;-85
2022/05/10 21:58:05;;;;;;;39.67;36.88;;;;;;;12.50;100.00;101445.25;5076397;28;20048;-83
2022/05/10 22:01:01;;;;;;;38.30;35.55;;;;;;;12.78;100.00;101442.44;5068317;28;20535;-86
2022/05/10 22:03:40;;;;;;;40.10;37.05;;;;;;;12.83;100.00;101436.50;5079203;28;20086;-85
2022/05/10 22:06:20;;;;;;;37.85;35.10;;;;;;;12.58;100.00;101439.72;5058647;28;20053;-85
2022/05/10 22:09:19;;;;;;;37.33;35.00;;;;;;;13.05;100.00;101437.94;5074938;28;20054;-85
2022/05/10 22:11:58;;;;;;;41.90;39.30;;;;;;;13.07;100.00;101443.06;5077405;28;20052;-86
2022/05/10 22:14:54;;;;;;;38.15;35.63;;;;;;;12.77;100.00;101440.78;5080710;28;20135;-85
2022/05/10 22:17:34;;;;;;;36.92;34.38;;;;;;;12.92;100.00;101437.94;5074476;28;20048;-86
2022/05/10 22:20:04;;;;;;;36.05;33.08;;;;;;;12.82;100.00;101434.84;5077789;28;20049;-87
2022/05/10 22:22:31;;;;;;;40.67;37.97;;;;;;;12.39;100.00;101432.50;5077568;28;20117;-84
2022/05/10 22:28:49;;;;;;;38.05;35.45;;;;;;;12.86;100.00;101428.09;5062967;28;20052;-86
2022/05/10 22:31:17;;;;;;;39.63;36.78;;;;;;;12.71;100.00;101430.94;5076090;28;20122;-85
2022/05/10 22:33:44;;;;;;;38.63;35.97;;;;;;;12.81;100.00;101433.22;5081699;28;20190;-84
2022/05/10 22:36:33;;;;;;;39.88;37.42;;;;;;;12.85;100.00;101421.09;5078140;28;20613;-87
2022/05/10 22:39:08;;;;;;;39.53;36.97;;;;;;;12.73;100.00;101431.53;5075907;28;20122;-84
2022/05/10 22:41:38;;;;;;;42.05;38.80;;;;;;;13.11;100.00;101430.16;5068670;28;20049;-85
2022/05/10 22:44:21;;;;;;;40.80;38.10;;;;;;;13.13;100.00;101426.25;5075629;28;20063;-85
2022/05/10 22:46:50;;;;;;;40.70;37.90;;;;;;;13.31;100.00;101427.50;5079608;28;20106;-85
2022/05/10 22:49:36;;;;;;;43.78;41.00;;;;;;;13.29;100.00;101425.88;5074965;28;20461;-86
2022/05/10 22:52:05;;;;;;;38.88;36.28;;;;;;;13.26;100.00;101428.94;5079013;28;20139;-85
2022/05/10 22:54:43;;;;;;;41.50;38.85;;;;;;;13.47;100.00;101419.91;5078033;28;20105;-87
2022/05/10 22:57:14;;;;;;;38.55;36.17;;;;;;;13.40;100.00;101415.59;5076014;28;20053;-86
2022/05/10 22:59:49;;;;;;;38.58;36.17;;;;;;;13.42;100.00;101416.22;5076092;28;20040;-85
2022/05/10 23:02:24;;;;;;;40.35;37.95;;;;;;;13.57;100.00;101411.47;5062853;28;20049;-87
2022/05/10 23:05:00;;;;;;;38.35;35.95;;;;;;;13.36;100.00;101406.38;5076805;28;20048;-87
2022/05/10 23:07:29;;;;;;;37.85;35.47;;;;;;;13.24;100.00;101400.81;5075455;28;20092;-85
2022/05/10 23:09:57;;;;;;;34.55;32.20;;;;;;;12.78;100.00;101401.63;5074922;28;20052;-85
2022/05/10 23:12:46;;;;;;;35.65;33.35;;;;;;;13.11;100.00;101404.31;5080734;28;20052;-85
2022/05/10 23:15:23;;;;;;;36.30;33.75;;;;;;;13.13;100.00;101404.94;5074822;28;20052;-85
2022/05/10 23:18:09;;;;;;;33.83;31.73;;;;;;;13.22;100.00;101414.34;5079315;28;20553;-85
2022/05/10 23:20:36;;;;;;;37.30;34.90;;;;;;;13.18;100.00;101407.78;5075700;28;20493;-87
2022/05/10 23:23:26;;;;;;;35.67;33.38;;;;;;;13.35;100.00;101408.22;5080831;28;20041;-86
2022/05/10 23:26:19;;;;;;;36.67;34.28;;;;;;;13.16;100.00;101406.34;5082836;28;20109;-86
2022/05/10 23:28:45;;;;;;;35.47;33.03;;;;;;;13.19;100.00;101409.44;5073195;28;20477;-85
2022/05/10 23:31:26;;;;;;;36.13;33.83;;;;;;;12.83;100.00;101400.00;5076987;28;20040;-87
2022/05/10 23:33:55;;;;;;;40.05;37.17;;;;;;;12.63;100.00;101393.00;5078099;28;20435;-87
2022/05/10 23:36:58;;;;;;;47.35;44.17;;;;;;;12.02;100.00;101410.66;5059416;28;20053;-86
2022/05/10 23:45:40;;;;;;;46.75;43.95;;;;;;;12.44;100.00;101397.28;5063933;28;20044;-87
2022/05/10 23:48:12;;;;;;;40.42;37.90;;;;;;;12.57;100.00;101394.63;5064284;28;20074;-86
2022/05/10 23:50:43;;;;;;;41.57;39.00;;;;;;;12.30;100.00;101397.22;5064412;28;20553;-86
2022/05/10 23:53:13;;;;;;;41.03;38.53;;;;;;;11.66;100.00;101395.69;5080246;28;20335;-85
2022/05/10 23:55:48;;;;;;;41.88;39.20;;;;;;;11.34;100.00;101397.13;5076986;28;20051;-85
2022/05/10 23:58:31;;;;;;;38.63;36.10;;;;;;;11.67;100.00;101396.53;5060530;28;20044;-86
